sensor_id;sensor_type;location;lat;lon;timestamp;P1;durP1;ratioP1;P2;durP2;ratioP2
56667;SDS011;42542;48.360;10.958;2023-03-04T00:01:17;64.13;;;21.88;;
56667;SDS011;42542;48.360;10.958;2023-03-04T00:04:19;60.07;;;21.43;;
56667;SDS011;42542;48.360;10.958;2023-03-04T00:07:23;66.93;;;22.13;;
56667;SDS011;42542;48.360;10.958;2023-03-04T00:10:26;65.25;;;21.38;;
56667;SDS011;42542;48.360;10.958;2023-03-04T00:13:27;64.70;;;21.73;;
56667;SDS011;42542;48.360;10.958;2023-03-04T00:16:29;59.28;;;21.02;;
56667;SDS011;42542;48.360;10.958;2023-03-04T00:19:31;71.55;;;22.48;;
56667;SDS011;42542;48.360;10.958;2023-03-04T00:22:33;57.20;;;20.13;;
56667;SDS011;42542;48.360;10.958;2023-03-04T00:25:34;64.77;;;21.20;;
56667;SDS011;42542;48.360;10.958;2023-03-04T00:28:36;64.43;;;21.05;;
56667;SDS011;42542;48.360;10.958;2023-03-04T00:31:38;59.10;;;20.65;;
56667;SDS011;42542;48.360;10.958;2023-03-04T00:34:41;58.13;;;20.53;;
56667;SDS011;42542;48.360;10.958;2023-03-04T00:37:43;59.72;;;21.40;;
56667;SDS011;42542;48.360;10.958;2023-03-04T00:40:46;63.65;;;20.95;;
56667;SDS011;42542;48.360;10.958;2023-03-04T00:43:47;58.20;;;19.75;;
56667;SDS011;42542;48.360;10.958;2023-03-04T00:46:49;61.05;;;19.65;;
56667;SDS011;42542;48.360;10.958;2023-03-04T00:49:54;59.17;;;20.38;;
56667;SDS011;42542;48.360;10.958;2023-03-04T00:52:56;56.63;;;20.20;;
56667;SDS011;42542;48.360;10.958;2023-03-04T00:55:58;61.53;;;21.10;;
56667;SDS011;42542;48.360;10.958;2023-03-04T00:58:59;58.42;;;20.80;;
56667;SDS011;42542;48.360;10.958;2023-03-04T01:02:01;55.90;;;20.35;;
56667;SDS011;42542;48.360;10.958;2023-03-04T01:05:03;63.00;;;20.03;;
56667;SDS011;42542;48.360;10.958;2023-03-04T01:08:06;60.85;;;19.48;;
56667;SDS011;42542;48.360;10.958;2023-03-04T01:11:08;64.43;;;20.52;;
56667;SDS011;42542;48.360;10.958;2023-03-04T01:14:09;61.03;;;20.35;;
56667;SDS011;42542;48.360;10.958;2023-03-04T01:17:11;59.00;;;20.17;;
56667;SDS011;42542;48.360;10.958;2023-03-04T01:20:13;61.28;;;20.20;;
56667;SDS011;42542;48.360;10.958;2023-03-04T01:23:15;59.60;;;19.92;;
56667;SDS011;42542;48.360;10.958;2023-03-04T01:26:18;62.67;;;20.70;;
56667;SDS011;42542;48.360;10.958;2023-03-04T01:29:21;61.75;;;19.73;;
56667;SDS011;42542;48.360;10.958;2023-03-04T01:32:23;55.60;;;20.50;;
56667;SDS011;42542;48.360;10.958;2023-03-04T01:35:26;61.43;;;20.10;;
56667;SDS011;42542;48.360;10.958;2023-03-04T01:38:27;55.40;;;19.83;;
56667;SDS011;42542;48.360;10.958;2023-03-04T01:41:29;58.80;;;20.08;;
56667;SDS011;42542;48.360;10.958;2023-03-04T01:44:32;62.40;;;20.70;;
56667;SDS011;42542;48.360;10.958;2023-03-04T01:47:35;65.10;;;20.30;;
56667;SDS011;42542;48.360;10.958;2023-03-04T01:50:37;64.93;;;20.23;;
56667;SDS011;42542;48.360;10.958;2023-03-04T01:53:40;59.53;;;20.30;;
56667;SDS011;42542;48.360;10.958;2023-03-04T01:56:43;57.60;;;20.37;;
56667;SDS011;42542;48.360;10.958;2023-03-04T02:03:33;60.20;;;20.20;;
56667;SDS011;42542;48.360;10.958;2023-03-04T02:06:36;65.37;;;19.83;;
56667;SDS011;42542;48.360;10.958;2023-03-04T02:09:39;61.90;;;20.52;;
56667;SDS011;42542;48.360;10.958;2023-03-04T02:12:48;59.35;;;19.80;;
56667;SDS011;42542;48.360;10.958;2023-03-04T02:15:51;65.05;;;20.60;;
56667;SDS011;42542;48.360;10.958;2023-03-04T02:18:54;61.55;;;19.55;;
56667;SDS011;42542;48.360;10.958;2023-03-04T02:21:56;61.47;;;20.83;;
56667;SDS011;42542;48.360;10.958;2023-03-04T02:24:59;60.17;;;19.85;;
56667;SDS011;42542;48.360;10.958;2023-03-04T02:28:09;57.43;;;19.93;;
56667;SDS011;42542;48.360;10.958;2023-03-04T02:34:28;58.58;;;19.65;;
56667;SDS011;42542;48.360;10.958;2023-03-04T02:37:33;58.73;;;19.90;;
56667;SDS011;42542;48.360;10.958;2023-03-04T02:40:35;56.63;;;19.30;;
56667;SDS011;42542;48.360;10.958;2023-03-04T02:43:39;60.40;;;21.05;;
56667;SDS011;42542;48.360;10.958;2023-03-04T02:46:41;62.42;;;19.48;;
56667;SDS011;42542;48.360;10.958;2023-03-04T02:49:44;58.95;;;19.95;;
56667;SDS011;42542;48.360;10.958;2023-03-04T02:52:46;61.05;;;19.83;;
56667;SDS011;42542;48.360;10.958;2023-03-04T02:55:49;66.35;;;20.98;;
56667;SDS011;42542;48.360;10.958;2023-03-04T02:58:55;58.67;;;20.43;;
56667;SDS011;42542;48.360;10.958;2023-03-04T03:01:59;62.53;;;19.85;;
56667;SDS011;42542;48.360;10.958;2023-03-04T03:05:01;61.60;;;20.17;;
56667;SDS011;42542;48.360;10.958;2023-03-04T03:08:03;62.10;;;20.13;;
56667;SDS011;42542;48.360;10.958;2023-03-04T03:11:05;57.40;;;18.83;;
56667;SDS011;42542;48.360;10.958;2023-03-04T03:14:11;57.78;;;19.65;;
56667;SDS011;42542;48.360;10.958;2023-03-04T03:17:13;59.05;;;19.63;;
56667;SDS011;42542;48.360;10.958;2023-03-04T03:20:16;57.83;;;18.90;;
56667;SDS011;42542;48.360;10.958;2023-03-04T03:23:20;57.42;;;19.55;;
56667;SDS011;42542;48.360;10.958;2023-03-04T03:26:23;54.72;;;19.63;;
56667;SDS011;42542;48.360;10.958;2023-03-04T03:29:25;53.53;;;19.63;;
56667;SDS011;42542;48.360;10.958;2023-03-04T03:32:28;57.20;;;19.75;;
56667;SDS011;42542;48.360;10.958;2023-03-04T03:35:30;59.83;;;19.77;;
56667;SDS011;42542;48.360;10.958;2023-03-04T03:38:32;60.37;;;19.87;;
56667;SDS011;42542;48.360;10.958;2023-03-04T03:41:34;57.10;;;19.23;;
56667;SDS011;42542;48.360;10.958;2023-03-04T03:44:36;55.92;;;18.67;;
56667;SDS011;42542;48.360;10.958;2023-03-04T03:47:38;52.05;;;19.48;;
56667;SDS011;42542;48.360;10.958;2023-03-04T03:50:40;56.00;;;18.42;;
56667;SDS011;42542;48.360;10.958;2023-03-04T03:53:42;57.55;;;18.80;;
56667;SDS011;42542;48.360;10.958;2023-03-04T03:56:43;56.40;;;20.13;;
56667;SDS011;42542;48.360;10.958;2023-03-04T03:59:45;58.20;;;18.57;;
56667;SDS011;42542;48.360;10.958;2023-03-04T04:02:47;59.75;;;19.38;;
56667;SDS011;42542;48.360;10.958;2023-03-04T04:05:50;55.17;;;18.15;;
56667;SDS011;42542;48.360;10.958;2023-03-04T04:08:52;59.17;;;18.27;;
56667;SDS011;42542;48.360;10.958;2023-03-04T04:11:54;51.38;;;18.38;;
56667;SDS011;42542;48.360;10.958;2023-03-04T04:14:57;55.45;;;19.63;;
56667;SDS011;42542;48.360;10.958;2023-03-04T04:17:59;55.42;;;17.98;;
56667;SDS011;42542;48.360;10.958;2023-03-04T04:21:01;52.97;;;18.77;;
56667;SDS011;42542;48.360;10.958;2023-03-04T04:24:04;52.60;;;17.38;;
56667;SDS011;42542;48.360;10.958;2023-03-04T04:27:06;52.30;;;17.27;;
56667;SDS011;42542;48.360;10.958;2023-03-04T04:30:08;57.23;;;18.73;;
56667;SDS011;42542;48.360;10.958;2023-03-04T04:33:10;52.88;;;18.35;;
56667;SDS011;42542;48.360;10.958;2023-03-04T04:36:13;46.72;;;17.48;;
56667;SDS011;42542;48.360;10.958;2023-03-04T04:39:16;47.20;;;17.07;;
56667;SDS011;42542;48.360;10.958;2023-03-04T04:42:20;46.95;;;16.98;;
56667;SDS011;42542;48.360;10.958;2023-03-04T04:45:22;49.20;;;17.60;;
56667;SDS011;42542;48.360;10.958;2023-03-04T04:48:25;54.92;;;18.48;;
56667;SDS011;42542;48.360;10.958;2023-03-04T04:51:27;55.45;;;17.55;;
56667;SDS011;42542;48.360;10.958;2023-03-04T04:54:29;52.47;;;17.27;;
56667;SDS011;42542;48.360;10.958;2023-03-04T04:57:32;48.58;;;16.83;;
56667;SDS011;42542;48.360;10.958;2023-03-04T05:00:34;49.57;;;16.97;;
56667;SDS011;42542;48.360;10.958;2023-03-04T05:03:36;54.00;;;17.70;;
56667;SDS011;42542;48.360;10.958;2023-03-04T05:06:40;55.65;;;18.08;;
56667;SDS011;42542;48.360;10.958;2023-03-04T05:09:41;51.47;;;17.17;;
56667;SDS011;42542;48.360;10.958;2023-03-04T05:12:44;49.17;;;16.48;;
56667;SDS011;42542;48.360;10.958;2023-03-04T05:15:46;53.92;;;17.45;;
56667;SDS011;42542;48.360;10.958;2023-03-04T05:18:48;48.65;;;17.08;;
56667;SDS011;42542;48.360;10.958;2023-03-04T05:21:51;49.78;;;16.15;;
56667;SDS011;42542;48.360;10.958;2023-03-04T05:24:53;45.90;;;16.52;;
56667;SDS011;42542;48.360;10.958;2023-03-04T05:27:55;51.60;;;16.75;;
56667;SDS011;42542;48.360;10.958;2023-03-04T05:30:58;49.07;;;15.93;;
56667;SDS011;42542;48.360;10.958;2023-03-04T05:34:00;48.28;;;16.65;;
56667;SDS011;42542;48.360;10.958;2023-03-04T05:37:02;47.25;;;16.45;;
56667;SDS011;42542;48.360;10.958;2023-03-04T05:40:04;48.17;;;15.97;;
56667;SDS011;42542;48.360;10.958;2023-03-04T05:43:08;49.00;;;16.63;;
56667;SDS011;42542;48.360;10.958;2023-03-04T05:46:13;49.13;;;17.15;;
56667;SDS011;42542;48.360;10.958;2023-03-04T05:49:16;47.63;;;15.73;;
56667;SDS011;42542;48.360;10.958;2023-03-04T05:52:18;43.88;;;16.00;;
56667;SDS011;42542;48.360;10.958;2023-03-04T05:55:23;41.70;;;16.20;;
56667;SDS011;42542;48.360;10.958;2023-03-04T05:58:27;41.33;;;15.30;;
56667;SDS011;42542;48.360;10.958;2023-03-04T06:01:31;51.80;;;17.90;;
56667;SDS011;42542;48.360;10.958;2023-03-04T06:04:32;48.17;;;16.13;;
56667;SDS011;42542;48.360;10.958;2023-03-04T06:07:34;47.28;;;16.38;;
56667;SDS011;42542;48.360;10.958;2023-03-04T06:10:37;42.73;;;15.10;;
56667;SDS011;42542;48.360;10.958;2023-03-04T06:13:41;43.97;;;15.25;;
56667;SDS011;42542;48.360;10.958;2023-03-04T06:16:42;51.45;;;16.80;;
56667;SDS011;42542;48.360;10.958;2023-03-04T06:19:45;46.33;;;15.52;;
56667;SDS011;42542;48.360;10.958;2023-03-04T06:22:46;44.65;;;15.90;;
56667;SDS011;42542;48.360;10.958;2023-03-04T06:25:50;47.13;;;17.08;;
56667;SDS011;42542;48.360;10.958;2023-03-04T06:28:54;47.47;;;16.40;;
56667;SDS011;42542;48.360;10.958;2023-03-04T06:31:58;47.57;;;16.47;;
56667;SDS011;42542;48.360;10.958;2023-03-04T06:35:00;47.58;;;16.65;;
56667;SDS011;42542;48.360;10.958;2023-03-04T06:38:02;41.50;;;15.80;;
56667;SDS011;42542;48.360;10.958;2023-03-04T06:41:11;47.00;;;16.13;;
56667;SDS011;42542;48.360;10.958;2023-03-04T06:44:14;49.38;;;16.85;;
56667;SDS011;42542;48.360;10.958;2023-03-04T06:47:16;45.53;;;16.17;;
56667;SDS011;42542;48.360;10.958;2023-03-04T06:50:19;46.83;;;16.02;;
56667;SDS011;42542;48.360;10.958;2023-03-04T06:53:24;46.97;;;16.23;;
56667;SDS011;42542;48.360;10.958;2023-03-04T06:59:59;47.72;;;17.10;;
56667;SDS011;42542;48.360;10.958;2023-03-04T07:03:01;43.37;;;15.83;;
56667;SDS011;42542;48.360;10.958;2023-03-04T07:06:04;43.05;;;17.23;;
56667;SDS011;42542;48.360;10.958;2023-03-04T07:09:07;52.00;;;16.33;;
56667;SDS011;42542;48.360;10.958;2023-03-04T07:12:09;48.23;;;17.57;;
56667;SDS011;42542;48.360;10.958;2023-03-04T07:15:11;48.97;;;16.20;;
56667;SDS011;42542;48.360;10.958;2023-03-04T07:18:14;53.13;;;18.08;;
56667;SDS011;42542;48.360;10.958;2023-03-04T07:21:19;49.83;;;18.70;;
56667;SDS011;42542;48.360;10.958;2023-03-04T07:24:25;58.95;;;20.35;;
56667;SDS011;42542;48.360;10.958;2023-03-04T07:27:28;51.35;;;18.02;;
56667;SDS011;42542;48.360;10.958;2023-03-04T07:30:31;50.13;;;19.17;;
56667;SDS011;42542;48.360;10.958;2023-03-04T07:33:33;57.13;;;20.00;;
56667;SDS011;42542;48.360;10.958;2023-03-04T07:36:35;61.90;;;21.50;;
56667;SDS011;42542;48.360;10.958;2023-03-04T07:39:40;64.72;;;21.92;;
56667;SDS011;42542;48.360;10.958;2023-03-04T07:42:42;67.00;;;23.53;;
56667;SDS011;42542;48.360;10.958;2023-03-04T07:45:48;60.83;;;22.08;;
56667;SDS011;42542;48.360;10.958;2023-03-04T07:48:50;66.85;;;23.67;;
56667;SDS011;42542;48.360;10.958;2023-03-04T07:51:54;70.30;;;23.50;;
56667;SDS011;42542;48.360;10.958;2023-03-04T07:54:58;68.22;;;23.35;;
56667;SDS011;42542;48.360;10.958;2023-03-04T07:58:00;69.15;;;24.48;;
56667;SDS011;42542;48.360;10.958;2023-03-04T08:01:23;70.07;;;23.70;;
56667;SDS011;42542;48.360;10.958;2023-03-04T08:04:29;65.00;;;23.23;;
56667;SDS011;42542;48.360;10.958;2023-03-04T08:07:31;61.33;;;21.38;;
56667;SDS011;42542;48.360;10.958;2023-03-04T08:10:34;57.75;;;21.23;;
56667;SDS011;42542;48.360;10.958;2023-03-04T08:13:37;56.93;;;19.70;;
56667;SDS011;42542;48.360;10.958;2023-03-04T08:16:40;54.60;;;19.27;;
56667;SDS011;42542;48.360;10.958;2023-03-04T08:19:42;52.08;;;18.77;;
56667;SDS011;42542;48.360;10.958;2023-03-04T08:22:44;51.78;;;18.77;;
56667;SDS011;42542;48.360;10.958;2023-03-04T08:25:46;53.55;;;18.83;;
56667;SDS011;42542;48.360;10.958;2023-03-04T08:28:49;50.63;;;17.30;;
56667;SDS011;42542;48.360;10.958;2023-03-04T08:31:51;47.83;;;17.13;;
56667;SDS011;42542;48.360;10.958;2023-03-04T08:34:55;41.23;;;15.23;;
56667;SDS011;42542;48.360;10.958;2023-03-04T08:37:58;43.42;;;16.65;;
56667;SDS011;42542;48.360;10.958;2023-03-04T08:41:03;43.50;;;15.60;;
56667;SDS011;42542;48.360;10.958;2023-03-04T08:44:05;41.27;;;15.73;;
56667;SDS011;42542;48.360;10.958;2023-03-04T08:47:09;41.92;;;15.43;;
56667;SDS011;42542;48.360;10.958;2023-03-04T08:50:11;42.30;;;14.95;;
56667;SDS011;42542;48.360;10.958;2023-03-04T08:53:13;44.13;;;15.15;;
56667;SDS011;42542;48.360;10.958;2023-03-04T08:56:15;41.33;;;15.00;;
56667;SDS011;42542;48.360;10.958;2023-03-04T08:59:17;40.17;;;15.02;;
56667;SDS011;42542;48.360;10.958;2023-03-04T09:02:19;39.20;;;14.85;;
56667;SDS011;42542;48.360;10.958;2023-03-04T09:05:21;33.43;;;12.70;;
56667;SDS011;42542;48.360;10.958;2023-03-04T09:08:25;34.40;;;13.25;;
56667;SDS011;42542;48.360;10.958;2023-03-04T09:11:27;36.45;;;13.70;;
56667;SDS011;42542;48.360;10.958;2023-03-04T09:14:31;31.73;;;12.17;;
56667;SDS011;42542;48.360;10.958;2023-03-04T09:17:36;31.48;;;11.43;;
56667;SDS011;42542;48.360;10.958;2023-03-04T09:20:38;33.53;;;11.30;;
56667;SDS011;42542;48.360;10.958;2023-03-04T09:23:40;30.42;;;11.20;;
56667;SDS011;42542;48.360;10.958;2023-03-04T09:26:42;27.20;;;10.20;;
56667;SDS011;42542;48.360;10.958;2023-03-04T09:29:46;29.05;;;10.23;;
56667;SDS011;42542;48.360;10.958;2023-03-04T09:32:47;31.10;;;11.13;;
56667;SDS011;42542;48.360;10.958;2023-03-04T09:35:50;30.73;;;11.10;;
56667;SDS011;42542;48.360;10.958;2023-03-04T09:38:52;30.38;;;11.43;;
56667;SDS011;42542;48.360;10.958;2023-03-04T09:41:56;31.35;;;11.63;;
56667;SDS011;42542;48.360;10.958;2023-03-04T09:45:04;35.70;;;12.00;;
56667;SDS011;42542;48.360;10.958;2023-03-04T09:48:09;34.95;;;12.82;;
56667;SDS011;42542;48.360;10.958;2023-03-04T09:51:36;36.42;;;12.88;;
56667;SDS011;42542;48.360;10.958;2023-03-04T09:54:54;34.90;;;13.48;;
56667;SDS011;42542;48.360;10.958;2023-03-04T10:05:01;39.10;;;12.65;;
56667;SDS011;42542;48.360;10.958;2023-03-04T10:08:11;40.13;;;13.23;;
56667;SDS011;42542;48.360;10.958;2023-03-04T10:11:44;35.30;;;13.63;;
56667;SDS011;42542;48.360;10.958;2023-03-04T10:14:51;39.28;;;13.55;;
56667;SDS011;42542;48.360;10.958;2023-03-04T10:18:13;38.27;;;13.30;;
56667;SDS011;42542;48.360;10.958;2023-03-04T10:21:31;33.28;;;12.57;;
56667;SDS011;42542;48.360;10.958;2023-03-04T10:24:39;38.85;;;13.95;;
56667;SDS011;42542;48.360;10.958;2023-03-04T10:27:41;39.45;;;13.80;;
56667;SDS011;42542;48.360;10.958;2023-03-04T10:34:03;32.53;;;11.43;;
56667;SDS011;42542;48.360;10.958;2023-03-04T10:37:08;30.58;;;11.63;;
56667;SDS011;42542;48.360;10.958;2023-03-04T10:40:21;36.40;;;12.07;;
56667;SDS011;42542;48.360;10.958;2023-03-04T10:43:25;31.10;;;11.80;;
56667;SDS011;42542;48.360;10.958;2023-03-04T10:46:28;29.02;;;11.05;;
56667;SDS011;42542;48.360;10.958;2023-03-04T10:49:31;30.90;;;11.13;;
56667;SDS011;42542;48.360;10.958;2023-03-04T10:52:46;31.25;;;10.63;;
56667;SDS011;42542;48.360;10.958;2023-03-04T10:55:52;32.47;;;11.27;;
56667;SDS011;42542;48.360;10.958;2023-03-04T11:02:38;30.42;;;11.68;;
56667;SDS011;42542;48.360;10.958;2023-03-04T11:05:40;32.55;;;12.27;;
56667;SDS011;42542;48.360;10.958;2023-03-04T11:08:42;36.53;;;12.70;;
56667;SDS011;42542;48.360;10.958;2023-03-04T11:11:45;34.23;;;12.57;;
56667;SDS011;42542;48.360;10.958;2023-03-04T11:14:48;34.95;;;12.52;;
56667;SDS011;42542;48.360;10.958;2023-03-04T11:17:52;35.75;;;12.77;;
56667;SDS011;42542;48.360;10.958;2023-03-04T11:20:56;34.50;;;12.40;;
56667;SDS011;42542;48.360;10.958;2023-03-04T11:24:01;34.50;;;12.65;;
56667;SDS011;42542;48.360;10.958;2023-03-04T11:27:05;35.70;;;13.35;;
56667;SDS011;42542;48.360;10.958;2023-03-04T11:33:41;32.35;;;11.25;;
56667;SDS011;42542;48.360;10.958;2023-03-04T11:36:51;33.78;;;12.10;;
56667;SDS011;42542;48.360;10.958;2023-03-04T11:40:10;34.13;;;11.13;;
56667;SDS011;42542;48.360;10.958;2023-03-04T11:43:18;32.83;;;10.53;;
56667;SDS011;42542;48.360;10.958;2023-03-04T11:56:43;30.98;;;10.80;;
56667;SDS011;42542;48.360;10.958;2023-03-04T11:59:55;26.48;;;9.95;;
56667;SDS011;42542;48.360;10.958;2023-03-04T12:03:37;28.75;;;9.82;;
56667;SDS011;42542;48.360;10.958;2023-03-04T12:16:32;28.10;;;10.40;;
56667;SDS011;42542;48.360;10.958;2023-03-04T12:26:57;28.47;;;10.30;;
56667;SDS011;42542;48.360;10.958;2023-03-04T12:47:49;27.27;;;9.73;;
56667;SDS011;42542;48.360;10.958;2023-03-04T12:50:56;27.37;;;9.40;;
56667;SDS011;42542;48.360;10.958;2023-03-04T12:54:26;29.33;;;9.93;;
56667;SDS011;42542;48.360;10.958;2023-03-04T12:57:33;21.65;;;8.70;;
56667;SDS011;42542;48.360;10.958;2023-03-04T13:00:56;27.90;;;9.43;;
56667;SDS011;42542;48.360;10.958;2023-03-04T13:04:40;21.80;;;8.15;;
56667;SDS011;42542;48.360;10.958;2023-03-04T13:14:35;23.67;;;8.93;;
56667;SDS011;42542;48.360;10.958;2023-03-04T13:20:42;26.23;;;9.23;;
56667;SDS011;42542;48.360;10.958;2023-03-04T13:23:44;23.03;;;8.83;;
56667;SDS011;42542;48.360;10.958;2023-03-04T13:26:45;26.27;;;9.15;;
56667;SDS011;42542;48.360;10.958;2023-03-04T13:29:47;26.83;;;9.38;;
56667;SDS011;42542;48.360;10.958;2023-03-04T13:32:49;27.00;;;9.60;;
56667;SDS011;42542;48.360;10.958;2023-03-04T13:36:03;27.40;;;9.60;;
56667;SDS011;42542;48.360;10.958;2023-03-04T13:45:44;20.70;;;8.20;;
56667;SDS011;42542;48.360;10.958;2023-03-04T13:51:50;25.33;;;9.20;;
56667;SDS011;42542;48.360;10.958;2023-03-04T13:55:26;25.87;;;8.53;;
56667;SDS011;42542;48.360;10.958;2023-03-04T13:58:34;23.38;;;8.15;;
56667;SDS011;42542;48.360;10.958;2023-03-04T14:05:05;24.77;;;8.87;;
56667;SDS011;42542;48.360;10.958;2023-03-04T14:08:16;23.90;;;8.60;;
56667;SDS011;42542;48.360;10.958;2023-03-04T14:11:33;22.00;;;8.30;;
56667;SDS011;42542;48.360;10.958;2023-03-04T14:14:44;25.73;;;8.43;;
56667;SDS011;42542;48.360;10.958;2023-03-04T14:17:51;21.35;;;8.38;;
56667;SDS011;42542;48.360;10.958;2023-03-04T14:20:55;28.42;;;8.63;;
56667;SDS011;42542;48.360;10.958;2023-03-04T14:24:07;24.05;;;8.88;;
56667;SDS011;42542;48.360;10.958;2023-03-04T14:27:13;23.87;;;9.23;;
56667;SDS011;42542;48.360;10.958;2023-03-04T14:30:20;25.20;;;8.88;;
56667;SDS011;42542;48.360;10.958;2023-03-04T14:33:46;25.85;;;9.43;;
56667;SDS011;42542;48.360;10.958;2023-03-04T14:36:54;21.97;;;8.73;;
56667;SDS011;42542;48.360;10.958;2023-03-04T14:39:56;25.35;;;8.88;;
56667;SDS011;42542;48.360;10.958;2023-03-04T14:43:13;24.63;;;8.68;;
56667;SDS011;42542;48.360;10.958;2023-03-04T14:46:18;27.55;;;8.77;;
56667;SDS011;42542;48.360;10.958;2023-03-04T14:49:22;26.63;;;8.82;;
56667;SDS011;42542;48.360;10.958;2023-03-04T14:52:29;22.13;;;8.35;;
56667;SDS011;42542;48.360;10.958;2023-03-04T14:55:39;25.10;;;8.57;;
56667;SDS011;42542;48.360;10.958;2023-03-04T14:58:56;23.53;;;8.20;;
56667;SDS011;42542;48.360;10.958;2023-03-04T15:02:36;23.90;;;8.52;;
56667;SDS011;42542;48.360;10.958;2023-03-04T15:05:40;23.90;;;8.60;;
56667;SDS011;42542;48.360;10.958;2023-03-04T15:08:42;22.63;;;8.50;;
56667;SDS011;42542;48.360;10.958;2023-03-04T15:11:47;25.88;;;8.25;;
56667;SDS011;42542;48.360;10.958;2023-03-04T15:14:52;22.80;;;8.38;;
56667;SDS011;42542;48.360;10.958;2023-03-04T15:18:20;22.77;;;8.30;;
56667;SDS011;42542;48.360;10.958;2023-03-04T15:21:28;24.75;;;8.57;;
56667;SDS011;42542;48.360;10.958;2023-03-04T15:24:33;24.05;;;8.82;;
56667;SDS011;42542;48.360;10.958;2023-03-04T15:27:35;23.77;;;8.77;;
56667;SDS011;42542;48.360;10.958;2023-03-04T15:30:37;24.07;;;8.67;;
56667;SDS011;42542;48.360;10.958;2023-03-04T15:33:39;22.23;;;7.63;;
56667;SDS011;42542;48.360;10.958;2023-03-04T15:36:43;25.25;;;8.90;;
56667;SDS011;42542;48.360;10.958;2023-03-04T15:39:47;25.37;;;8.73;;
56667;SDS011;42542;48.360;10.958;2023-03-04T15:42:49;23.25;;;8.85;;
56667;SDS011;42542;48.360;10.958;2023-03-04T15:45:50;23.98;;;8.48;;
56667;SDS011;42542;48.360;10.958;2023-03-04T15:48:53;21.45;;;8.40;;
56667;SDS011;42542;48.360;10.958;2023-03-04T15:51:54;24.90;;;8.90;;
56667;SDS011;42542;48.360;10.958;2023-03-04T15:54:56;22.38;;;8.55;;
56667;SDS011;42542;48.360;10.958;2023-03-04T15:58:02;24.13;;;8.88;;
56667;SDS011;42542;48.360;10.958;2023-03-04T16:01:08;25.33;;;8.43;;
56667;SDS011;42542;48.360;10.958;2023-03-04T16:04:15;27.38;;;9.25;;
56667;SDS011;42542;48.360;10.958;2023-03-04T16:07:19;27.75;;;9.18;;
56667;SDS011;42542;48.360;10.958;2023-03-04T16:10:26;24.70;;;8.77;;
56667;SDS011;42542;48.360;10.958;2023-03-04T16:13:31;24.85;;;9.05;;
56667;SDS011;42542;48.360;10.958;2023-03-04T16:16:34;27.90;;;9.50;;
56667;SDS011;42542;48.360;10.958;2023-03-04T16:19:36;24.50;;;9.18;;
56667;SDS011;42542;48.360;10.958;2023-03-04T16:22:38;28.77;;;9.57;;
56667;SDS011;42542;48.360;10.958;2023-03-04T16:25:44;23.08;;;8.90;;
56667;SDS011;42542;48.360;10.958;2023-03-04T16:28:47;23.00;;;9.13;;
56667;SDS011;42542;48.360;10.958;2023-03-04T16:31:49;22.07;;;9.10;;
56667;SDS011;42542;48.360;10.958;2023-03-04T16:34:50;24.73;;;9.38;;
56667;SDS011;42542;48.360;10.958;2023-03-04T16:37:53;26.73;;;9.45;;
56667;SDS011;42542;48.360;10.958;2023-03-04T16:40:55;28.13;;;9.37;;
56667;SDS011;42542;48.360;10.958;2023-03-04T16:44:00;27.77;;;10.43;;
56667;SDS011;42542;48.360;10.958;2023-03-04T16:47:04;23.45;;;9.38;;
56667;SDS011;42542;48.360;10.958;2023-03-04T16:50:11;27.38;;;10.05;;
56667;SDS011;42542;48.360;10.958;2023-03-04T16:53:20;30.98;;;10.13;;
56667;SDS011;42542;48.360;10.958;2023-03-04T16:56:27;28.50;;;9.80;;
56667;SDS011;42542;48.360;10.958;2023-03-04T16:59:29;28.83;;;9.40;;
56667;SDS011;42542;48.360;10.958;2023-03-04T17:02:33;34.77;;;9.57;;
56667;SDS011;42542;48.360;10.958;2023-03-04T17:05:36;29.67;;;10.55;;
56667;SDS011;42542;48.360;10.958;2023-03-04T17:08:38;27.02;;;9.65;;
56667;SDS011;42542;48.360;10.958;2023-03-04T17:11:40;27.63;;;10.00;;
56667;SDS011;42542;48.360;10.958;2023-03-04T17:14:42;26.38;;;9.80;;
56667;SDS011;42542;48.360;10.958;2023-03-04T17:17:43;27.02;;;10.13;;
56667;SDS011;42542;48.360;10.958;2023-03-04T17:20:46;27.88;;;9.73;;
56667;SDS011;42542;48.360;10.958;2023-03-04T17:23:47;25.17;;;9.80;;
56667;SDS011;42542;48.360;10.958;2023-03-04T17:26:50;27.02;;;9.95;;
56667;SDS011;42542;48.360;10.958;2023-03-04T17:29:52;26.92;;;9.98;;
56667;SDS011;42542;48.360;10.958;2023-03-04T17:32:53;27.33;;;9.57;;
56667;SDS011;42542;48.360;10.958;2023-03-04T17:35:55;26.38;;;9.68;;
56667;SDS011;42542;48.360;10.958;2023-03-04T17:38:59;29.75;;;10.10;;
56667;SDS011;42542;48.360;10.958;2023-03-04T17:42:03;27.10;;;9.23;;
56667;SDS011;42542;48.360;10.958;2023-03-04T17:45:06;28.27;;;10.43;;
56667;SDS011;42542;48.360;10.958;2023-03-04T17:48:09;26.80;;;9.93;;
56667;SDS011;42542;48.360;10.958;2023-03-04T17:51:15;27.17;;;10.25;;
56667;SDS011;42542;48.360;10.958;2023-03-04T17:54:18;29.77;;;10.30;;
56667;SDS011;42542;48.360;10.958;2023-03-04T17:57:20;29.42;;;10.27;;
56667;SDS011;42542;48.360;10.958;2023-03-04T18:00:22;25.92;;;10.02;;
56667;SDS011;42542;48.360;10.958;2023-03-04T18:03:24;28.63;;;10.10;;
56667;SDS011;42542;48.360;10.958;2023-03-04T18:06:26;27.85;;;10.27;;
56667;SDS011;42542;48.360;10.958;2023-03-04T18:09:27;28.23;;;10.43;;
56667;SDS011;42542;48.360;10.958;2023-03-04T18:12:29;30.83;;;10.70;;
56667;SDS011;42542;48.360;10.958;2023-03-04T18:15:32;31.52;;;11.15;;
56667;SDS011;42542;48.360;10.958;2023-03-04T18:18:35;31.85;;;10.63;;
56667;SDS011;42542;48.360;10.958;2023-03-04T18:21:38;27.60;;;10.70;;
56667;SDS011;42542;48.360;10.958;2023-03-04T18:24:41;30.73;;;11.20;;
56667;SDS011;42542;48.360;10.958;2023-03-04T18:27:44;27.52;;;10.57;;
56667;SDS011;42542;48.360;10.958;2023-03-04T18:30:51;29.45;;;10.55;;
56667;SDS011;42542;48.360;10.958;2023-03-04T18:33:54;30.57;;;11.00;;
56667;SDS011;42542;48.360;10.958;2023-03-04T18:36:59;30.42;;;11.73;;
56667;SDS011;42542;48.360;10.958;2023-03-04T18:40:03;31.33;;;10.32;;
56667;SDS011;42542;48.360;10.958;2023-03-04T18:43:16;31.70;;;11.07;;
56667;SDS011;42542;48.360;10.958;2023-03-04T18:46:26;27.88;;;11.02;;
56667;SDS011;42542;48.360;10.958;2023-03-04T18:49:34;27.92;;;10.77;;
56667;SDS011;42542;48.360;10.958;2023-03-04T18:52:39;29.48;;;10.23;;
56667;SDS011;42542;48.360;10.958;2023-03-04T18:55:43;30.33;;;10.13;;
56667;SDS011;42542;48.360;10.958;2023-03-04T18:58:47;34.88;;;11.18;;
56667;SDS011;42542;48.360;10.958;2023-03-04T19:01:51;31.10;;;11.20;;
56667;SDS011;42542;48.360;10.958;2023-03-04T19:04:55;31.33;;;10.57;;
56667;SDS011;42542;48.360;10.958;2023-03-04T19:08:00;31.58;;;10.52;;
56667;SDS011;42542;48.360;10.958;2023-03-04T19:11:03;29.42;;;10.40;;
56667;SDS011;42542;48.360;10.958;2023-03-04T19:14:09;29.43;;;9.83;;
56667;SDS011;42542;48.360;10.958;2023-03-04T19:17:12;27.63;;;10.27;;
56667;SDS011;42542;48.360;10.958;2023-03-04T19:20:16;37.53;;;11.48;;
56667;SDS011;42542;48.360;10.958;2023-03-04T19:23:18;38.63;;;12.13;;